createdAt,value
2023-02-21T00:00:00.585Z,4.2
2023-02-21T00:01:00.555Z,4.5
2023-02-21T00:02:00.578Z,4.5
2023-02-21T00:03:00.590Z,4.5
2023-02-21T00:04:00.539Z,4.5
2023-02-21T00:05:00.645Z,4.5
2023-02-21T00:06:00.630Z,4.4
2023-02-21T00:07:00.532Z,4.4
2023-02-21T00:08:00.906Z,4.4
2023-02-21T00:09:00.557Z,4.4
2023-02-21T00:10:00.549Z,4.4
2023-02-21T00:11:00.832Z,3.9
2023-02-21T00:12:00.553Z,3.9
2023-02-21T00:13:00.558Z,3.9
2023-02-21T00:14:00.533Z,3.9
2023-02-21T00:15:00.580Z,3.9
2023-02-21T00:16:00.548Z,4.4
2023-02-21T00:17:00.565Z,4.4
2023-02-21T00:18:00.584Z,4.4
2023-02-21T00:19:00.882Z,4.4
2023-02-21T00:20:00.686Z,4.4
2023-02-21T00:21:00.679Z,4.2
2023-02-21T00:22:00.517Z,4.2
2023-02-21T00:23:00.525Z,4.2
2023-02-21T00:24:00.512Z,4.2
2023-02-21T00:25:00.574Z,4.2
2023-02-21T00:26:00.539Z,4.3
2023-02-21T00:27:00.994Z,4.3
2023-02-21T00:28:00.741Z,4.3
2023-02-21T00:29:00.525Z,4.3
2023-02-21T00:30:00.718Z,4.3
2023-02-21T00:31:00.608Z,4.4
2023-02-21T00:32:00.507Z,4.4
2023-02-21T00:33:00.698Z,4.4
2023-02-21T00:34:00.517Z,4.4
2023-02-21T00:35:00.648Z,4.4
2023-02-21T00:36:00.539Z,4.3
2023-02-21T00:37:00.528Z,4.3
2023-02-21T00:38:00.543Z,4.3
2023-02-21T00:39:00.608Z,4.3
2023-02-21T00:40:00.610Z,4.3
2023-02-21T00:41:00.593Z,4.5
2023-02-21T00:42:00.598Z,4.5
2023-02-21T00:43:00.894Z,4.5
2023-02-21T00:44:00.564Z,4.5
2023-02-21T00:45:00.506Z,4.5
2023-02-21T00:46:00.546Z,4.5
2023-02-21T00:47:00.576Z,4.5
2023-02-21T00:48:00.536Z,4.5
2023-02-21T00:49:01.669Z,4.5
2023-02-21T00:50:00.524Z,4.5
2023-02-21T00:51:00.574Z,4.8
2023-02-21T00:52:00.545Z,4.8
2023-02-21T00:53:00.539Z,4.8
2023-02-21T00:54:01.143Z,4.8
2023-02-21T00:55:00.561Z,4.8
2023-02-21T00:56:00.531Z,4.6
2023-02-21T00:57:00.586Z,4.6
2023-02-21T00:58:00.538Z,4.6
2023-02-21T00:59:00.568Z,4.6
2023-02-21T01:00:00.571Z,4.6
2023-02-21T01:01:00.587Z,5.0
2023-02-21T01:02:00.560Z,5.0
2023-02-21T01:03:00.640Z,5.0
2023-02-21T01:04:00.587Z,5.0
2023-02-21T01:05:00.646Z,5.0
2023-02-21T01:06:00.604Z,4.7
2023-02-21T01:07:00.551Z,4.7
2023-02-21T01:08:00.512Z,4.7
2023-02-21T01:09:00.596Z,4.7
2023-02-21T01:10:00.684Z,4.7
2023-02-21T01:11:00.545Z,5.2
2023-02-21T01:12:00.625Z,5.2
2023-02-21T01:13:00.634Z,5.2
2023-02-21T01:14:00.576Z,5.2
2023-02-21T01:15:00.639Z,5.2
2023-02-21T01:16:00.630Z,5.0
2023-02-21T01:17:12.412Z,5.0
2023-02-21T01:18:00.601Z,5.0
2023-02-21T01:19:00.636Z,5.0
2023-02-21T01:20:00.581Z,5.0
2023-02-21T01:21:00.550Z,5.1
2023-02-21T01:22:02.573Z,5.1
2023-02-21T01:23:00.527Z,5.1
2023-02-21T01:24:01.011Z,5.1
2023-02-21T01:25:00.796Z,4.9
2023-02-21T01:26:00.521Z,4.9
2023-02-21T01:27:00.595Z,4.9
2023-02-21T01:28:00.592Z,4.9
2023-02-21T01:29:00.537Z,4.9
2023-02-21T01:30:00.588Z,5.1
2023-02-21T01:31:00.582Z,5.1
2023-02-21T01:32:00.582Z,5.1
2023-02-21T01:33:00.611Z,5.1
2023-02-21T01:34:00.538Z,5.1
2023-02-21T01:35:00.544Z,5.1
2023-02-21T01:36:00.583Z,5.1
2023-02-21T01:37:00.542Z,5.1
2023-02-21T01:38:00.517Z,5.1
2023-02-21T01:39:00.544Z,5.1
2023-02-21T01:40:00.590Z,5.4
2023-02-21T01:41:00.690Z,5.4
2023-02-21T01:42:00.922Z,5.4
2023-02-21T01:43:00.538Z,5.4
2023-02-21T01:44:03.686Z,5.4
2023-02-21T01:45:13.746Z,4.6
2023-02-21T01:46:00.636Z,4.6
2023-02-21T01:47:00.548Z,4.6
2023-02-21T01:48:00.552Z,4.6
2023-02-21T01:49:06.000Z,4.6
2023-02-21T01:50:11.022Z,4.7
2023-02-21T01:51:03.003Z,4.7
2023-02-21T01:52:03.734Z,4.7
2023-02-21T01:53:03.448Z,4.7
2023-02-21T01:54:01.358Z,4.7
2023-02-21T01:55:01.925Z,4.7
2023-02-21T01:56:01.399Z,4.7
2023-02-21T01:57:03.125Z,4.7
2023-02-21T01:58:00.673Z,4.7
2023-02-21T01:59:01.433Z,4.7
2023-02-21T02:00:05.625Z,4.8
2023-02-21T02:01:00.548Z,4.8
2023-02-21T02:02:04.882Z,4.8
2023-02-21T02:03:04.315Z,4.8
2023-02-21T02:04:01.762Z,4.8
2023-02-21T02:05:01.796Z,5.0
2023-02-21T02:06:11.100Z,5.0
2023-02-21T02:07:01.239Z,5.0
2023-02-21T02:08:00.589Z,5.0
2023-02-21T02:09:18.601Z,5.0
2023-02-21T02:10:00.723Z,4.6
2023-02-21T02:11:18.911Z,4.6
2023-02-21T02:12:20.442Z,4.6
2023-02-21T02:13:11.073Z,4.6
2023-02-21T02:14:20.428Z,4.6
2023-02-21T02:15:13.298Z,4.6
2023-02-21T02:16:07.360Z,4.6
2023-02-21T02:17:08.111Z,4.6
2023-02-21T02:18:11.512Z,4.6
2023-02-21T02:19:20.466Z,4.6
2023-02-21T02:20:20.445Z,4.5
2023-02-21T02:21:10.518Z,4.5
2023-02-21T02:22:11.537Z,4.5
2023-02-21T02:23:20.428Z,4.5
2023-02-21T02:24:18.146Z,4.5
2023-02-21T02:25:16.914Z,4.7
2023-02-21T02:26:13.746Z,4.7
2023-02-21T02:27:10.488Z,4.7
2023-02-21T02:28:20.462Z,4.7
2023-02-21T02:29:20.427Z,4.7
2023-02-21T02:30:16.924Z,4.4
2023-02-21T02:31:02.664Z,4.4
2023-02-21T02:32:18.902Z,4.4
2023-02-21T02:33:11.510Z,4.4
2023-02-21T02:34:20.464Z,4.4
2023-02-21T02:35:06.098Z,4.4
2023-02-21T02:36:16.076Z,4.4
2023-02-21T02:37:13.452Z,4.4
2023-02-21T02:38:11.020Z,4.4
2023-02-21T02:39:14.299Z,4.4
2023-02-21T02:40:09.847Z,4.2
2023-02-21T02:41:12.390Z,4.2
2023-02-21T02:42:15.019Z,4.2
2023-02-21T02:43:08.340Z,4.2
2023-02-21T02:44:08.172Z,4.2
2023-02-21T02:45:09.797Z,4.4
2023-02-21T02:46:06.995Z,4.4
2023-02-21T02:47:03.467Z,4.4
2023-02-21T02:48:13.789Z,4.4
2023-02-21T02:49:07.625Z,4.4
2023-02-21T02:50:02.696Z,4.0
2023-02-21T02:51:04.794Z,4.0
2023-02-21T02:52:02.939Z,4.0
2023-02-21T02:53:02.299Z,4.0
2023-02-21T02:54:01.091Z,4.0
2023-02-21T02:55:12.825Z,4.3
2023-02-21T02:56:03.204Z,4.3
2023-02-21T02:57:04.081Z,4.3
2023-02-21T02:58:01.640Z,4.3
2023-02-21T02:59:06.347Z,4.3
2023-02-21T03:00:01.444Z,4.3
2023-02-21T03:01:20.457Z,4.3
2023-02-21T03:02:17.939Z,4.3
2023-02-21T03:03:10.473Z,4.3
2023-02-21T03:04:10.477Z,4.3
2023-02-21T03:05:10.454Z,4.3
2023-02-21T03:06:20.422Z,4.3
2023-02-21T03:07:10.492Z,4.3
2023-02-21T03:08:11.497Z,4.3
2023-02-21T03:09:13.041Z,4.3
2023-02-21T03:10:08.971Z,4.4
2023-02-21T03:11:15.066Z,4.4
2023-02-21T03:12:14.298Z,4.4
2023-02-21T03:13:11.301Z,4.4
2023-02-21T03:14:12.361Z,4.4
2023-02-21T03:15:16.475Z,4.3
2023-02-21T03:16:12.576Z,4.3
2023-02-21T03:17:04.942Z,4.3
2023-02-21T03:18:15.165Z,4.3
2023-02-21T03:19:06.134Z,4.3
2023-02-21T03:20:02.527Z,4.5
2023-02-21T03:21:04.547Z,4.5
2023-02-21T03:22:06.654Z,4.5
2023-02-21T03:23:02.030Z,4.5
2023-02-21T03:24:03.384Z,4.5
2023-02-21T03:25:02.596Z,4.2
2023-02-21T03:26:04.949Z,4.2
2023-02-21T03:27:04.686Z,4.2
2023-02-21T03:28:01.324Z,4.2
2023-02-21T03:29:01.514Z,4.2
2023-02-21T03:30:03.976Z,4.1
2023-02-21T03:31:03.857Z,4.1
2023-02-21T03:32:07.048Z,4.1
2023-02-21T03:33:00.619Z,4.1
2023-02-21T03:34:00.655Z,4.1
2023-02-21T03:35:01.098Z,4.1
2023-02-21T03:36:04.162Z,4.1
2023-02-21T03:37:00.582Z,4.1
2023-02-21T03:38:00.587Z,4.1
2023-02-21T03:39:00.549Z,4.1
2023-02-21T03:40:02.282Z,4.0
2023-02-21T03:41:00.594Z,4.0
2023-02-21T03:42:00.680Z,4.0
2023-02-21T03:43:04.082Z,4.0
2023-02-21T03:44:00.542Z,4.0
2023-02-21T03:45:00.720Z,4.3
2023-02-21T03:46:00.593Z,4.3
2023-02-21T03:47:00.521Z,4.3
2023-02-21T03:48:01.642Z,4.3
2023-02-21T03:49:00.551Z,4.3
2023-02-21T03:50:00.778Z,4.5
2023-02-21T03:51:00.601Z,4.5
2023-02-21T03:52:00.559Z,4.5
2023-02-21T03:53:00.528Z,4.5
2023-02-21T03:54:00.558Z,4.5
2023-02-21T03:55:00.636Z,4.4
2023-02-21T03:56:00.554Z,4.4
2023-02-21T03:57:00.524Z,4.4
2023-02-21T03:58:00.759Z,4.4
2023-02-21T03:59:00.651Z,4.4
2023-02-21T04:00:00.887Z,5.2
2023-02-21T04:01:00.581Z,5.2
2023-02-21T04:02:00.767Z,5.2
2023-02-21T04:03:00.547Z,5.2
2023-02-21T04:04:00.533Z,5.2
2023-02-21T04:05:00.558Z,4.8
2023-02-21T04:06:00.546Z,4.8
2023-02-21T04:07:00.528Z,4.8
2023-02-21T04:08:00.921Z,4.8
2023-02-21T04:09:00.564Z,4.8
2023-02-21T04:10:00.644Z,4.8
2023-02-21T04:11:00.509Z,4.8
2023-02-21T04:12:00.899Z,4.8
2023-02-21T04:13:00.516Z,4.8
2023-02-21T04:14:00.564Z,4.8
2023-02-21T04:15:00.568Z,5.0
2023-02-21T04:16:00.567Z,5.0
2023-02-21T04:17:00.584Z,5.0
2023-02-21T04:18:00.815Z,5.0
2023-02-21T04:19:00.538Z,5.0
2023-02-21T04:20:00.533Z,5.3
2023-02-21T04:21:00.597Z,5.3
2023-02-21T04:22:00.562Z,5.3
2023-02-21T04:23:03.509Z,5.3
2023-02-21T04:24:00.544Z,5.3
2023-02-21T04:25:00.522Z,5.3
2023-02-21T04:26:00.609Z,5.3
2023-02-21T04:27:00.546Z,5.3
2023-02-21T04:28:00.530Z,5.3
2023-02-21T04:29:01.209Z,5.3
2023-02-21T04:30:01.267Z,5.0
2023-02-21T04:31:00.589Z,5.0
2023-02-21T04:32:00.664Z,5.0
2023-02-21T04:33:00.538Z,5.0
2023-02-21T04:34:11.350Z,5.0
2023-02-21T04:35:00.566Z,5.4
2023-02-21T04:36:00.550Z,5.4
2023-02-21T04:37:00.515Z,5.4
2023-02-21T04:38:00.551Z,5.4
2023-02-21T04:39:00.522Z,5.4
2023-02-21T04:40:00.555Z,4.9
2023-02-21T04:41:00.553Z,4.9
2023-02-21T04:42:00.530Z,4.9
2023-02-21T04:43:00.533Z,4.9
2023-02-21T04:44:00.667Z,4.9
2023-02-21T04:45:00.913Z,5.4
2023-02-21T04:46:00.562Z,5.4
2023-02-21T04:47:00.609Z,5.4
2023-02-21T04:48:00.733Z,5.4
2023-02-21T04:49:00.961Z,5.4
2023-02-21T04:50:00.549Z,5.6
2023-02-21T04:51:13.383Z,5.6
2023-02-21T04:52:00.728Z,5.6
2023-02-21T04:53:00.542Z,5.6
2023-02-21T04:54:00.540Z,5.6
2023-02-21T04:55:00.602Z,5.6
2023-02-21T04:56:00.571Z,5.6
2023-02-21T04:57:00.741Z,5.6
2023-02-21T04:58:00.566Z,5.6
2023-02-21T04:59:00.576Z,5.6
2023-02-21T05:00:00.568Z,5.8
2023-02-21T05:01:00.639Z,5.8
2023-02-21T05:02:02.844Z,5.8
2023-02-21T05:03:00.673Z,5.8
2023-02-21T05:04:00.869Z,5.8
2023-02-21T05:05:00.766Z,5.6
2023-02-21T05:06:00.608Z,5.6
2023-02-21T05:07:01.163Z,5.6
2023-02-21T05:08:00.598Z,5.6
2023-02-21T05:09:01.349Z,5.6
2023-02-21T05:10:00.559Z,5.9
2023-02-21T05:11:00.603Z,5.9
2023-02-21T05:12:00.619Z,5.9
2023-02-21T05:13:00.561Z,5.9
2023-02-21T05:14:00.879Z,5.9
2023-02-21T05:15:00.575Z,6.0
2023-02-21T05:16:00.554Z,6.0
2023-02-21T05:17:00.575Z,6.0
2023-02-21T05:18:00.538Z,6.0
2023-02-21T05:19:00.561Z,6.0
2023-02-21T05:20:00.799Z,6.2
2023-02-21T05:21:01.773Z,6.2
2023-02-21T05:22:01.912Z,6.2
2023-02-21T05:23:11.715Z,6.2
2023-02-21T05:24:00.545Z,6.2
2023-02-21T05:25:00.545Z,6.6
2023-02-21T05:26:04.953Z,6.6
2023-02-21T05:27:00.648Z,6.6
2023-02-21T05:28:00.517Z,6.6
2023-02-21T05:29:00.850Z,6.6
2023-02-21T05:30:00.566Z,6.8
2023-02-21T05:31:01.243Z,6.8
2023-02-21T05:32:00.611Z,6.8
2023-02-21T05:33:00.585Z,6.8
2023-02-21T05:34:00.534Z,6.8
2023-02-21T05:35:00.637Z,6.9
2023-02-21T05:36:01.056Z,6.9
2023-02-21T05:37:00.558Z,6.9
2023-02-21T05:38:00.565Z,6.9
2023-02-21T05:39:00.638Z,6.9
2023-02-21T05:40:00.692Z,7.0
2023-02-21T05:41:00.532Z,7.0
2023-02-21T05:42:00.634Z,7.0
2023-02-21T05:43:00.540Z,7.0
2023-02-21T05:44:01.652Z,7.0
2023-02-21T05:45:00.536Z,7.2
2023-02-21T05:46:00.589Z,7.2
2023-02-21T05:47:00.600Z,7.2
2023-02-21T05:48:00.627Z,7.2
2023-02-21T05:49:02.739Z,7.2
2023-02-21T05:50:00.951Z,7.1
2023-02-21T05:51:00.535Z,7.1
2023-02-21T05:52:00.550Z,7.1
2023-02-21T05:53:01.023Z,7.1
2023-02-21T05:54:00.780Z,7.1
2023-02-21T05:55:00.549Z,7.4
2023-02-21T05:56:00.547Z,7.4
2023-02-21T05:57:00.865Z,7.4
2023-02-21T05:58:00.562Z,7.4
2023-02-21T05:59:00.529Z,7.4
2023-02-21T06:00:00.514Z,7.1
2023-02-21T06:01:00.560Z,7.1
2023-02-21T06:02:00.683Z,7.1
2023-02-21T06:03:02.530Z,7.1
2023-02-21T06:04:00.570Z,7.1
2023-02-21T06:05:00.524Z,6.8
2023-02-21T06:06:01.096Z,6.8
2023-02-21T06:07:00.534Z,6.8
2023-02-21T06:08:00.569Z,6.8
2023-02-21T06:09:00.584Z,6.8
2023-02-21T06:10:00.550Z,6.8
2023-02-21T06:11:00.520Z,6.8
2023-02-21T06:12:00.591Z,6.8
2023-02-21T06:13:00.558Z,6.8
2023-02-21T06:14:02.021Z,6.8
2023-02-21T06:15:00.537Z,6.9
2023-02-21T06:16:00.586Z,6.9
2023-02-21T06:17:00.663Z,6.9
2023-02-21T06:18:00.524Z,6.9
2023-02-21T06:19:01.995Z,6.9
2023-02-21T06:20:00.660Z,6.8
2023-02-21T06:21:00.549Z,6.8
2023-02-21T06:22:00.536Z,6.8
2023-02-21T06:23:00.560Z,6.8
2023-02-21T06:24:01.689Z,6.8
2023-02-21T06:25:00.549Z,7.5
2023-02-21T06:26:00.595Z,7.5
2023-02-21T06:27:00.832Z,7.5
2023-02-21T06:28:00.676Z,7.5
2023-02-21T06:29:00.535Z,7.5
2023-02-21T06:30:01.039Z,7.7
2023-02-21T06:31:02.992Z,7.7
2023-02-21T06:32:00.937Z,7.7
2023-02-21T06:33:00.536Z,7.7
2023-02-21T06:34:00.606Z,7.7
2023-02-21T06:35:00.947Z,8.0
2023-02-21T06:36:12.619Z,8.0
2023-02-21T06:37:00.528Z,8.0
2023-02-21T06:38:00.519Z,8.0
2023-02-21T06:39:00.630Z,8.0
2023-02-21T06:40:00.558Z,7.8
2023-02-21T06:41:04.972Z,7.8
2023-02-21T06:42:00.576Z,7.8
2023-02-21T06:43:00.554Z,7.8
2023-02-21T06:44:00.522Z,7.8
2023-02-21T06:45:00.570Z,8.5
2023-02-21T06:46:00.642Z,8.5
2023-02-21T06:47:00.579Z,8.5
2023-02-21T06:48:00.668Z,8.5
2023-02-21T06:49:00.780Z,8.5
2023-02-21T06:50:00.635Z,9.0
2023-02-21T06:51:00.712Z,9.0
2023-02-21T06:52:00.559Z,9.0
2023-02-21T06:53:00.526Z,9.0
2023-02-21T06:54:00.610Z,9.0
2023-02-21T06:55:00.570Z,8.6
2023-02-21T06:56:00.543Z,8.6
2023-02-21T06:57:00.547Z,8.6
2023-02-21T06:58:00.529Z,8.6
2023-02-21T06:59:00.573Z,8.6
2023-02-21T07:00:00.537Z,8.9
2023-02-21T07:01:00.962Z,8.9
2023-02-21T07:02:01.106Z,8.9
2023-02-21T07:03:00.556Z,8.9
2023-02-21T07:04:00.606Z,8.9
2023-02-21T07:05:00.616Z,8.8
2023-02-21T07:06:00.525Z,8.8
2023-02-21T07:07:00.563Z,8.8
2023-02-21T07:08:01.455Z,8.8
2023-02-21T07:09:00.745Z,8.8
2023-02-21T07:10:00.552Z,8.9
2023-02-21T07:11:00.664Z,8.9
2023-02-21T07:12:00.576Z,8.9
2023-02-21T07:13:00.552Z,8.9
2023-02-21T07:14:00.590Z,8.9
2023-02-21T07:15:00.598Z,8.5
2023-02-21T07:16:01.595Z,8.5
2023-02-21T07:17:00.669Z,8.5
2023-02-21T07:18:00.644Z,8.5
2023-02-21T07:19:00.547Z,8.5
2023-02-21T07:20:00.619Z,8.6
2023-02-21T07:21:00.526Z,8.6
2023-02-21T07:22:00.559Z,8.6
2023-02-21T07:23:00.573Z,8.6
2023-02-21T07:24:00.583Z,8.6
2023-02-21T07:25:00.594Z,9.1
2023-02-21T07:26:00.579Z,9.1
2023-02-21T07:27:00.538Z,9.1
2023-02-21T07:28:00.585Z,9.1
2023-02-21T07:29:00.597Z,9.1
2023-02-21T07:30:00.554Z,8.9
2023-02-21T07:31:00.590Z,8.9
2023-02-21T07:32:00.635Z,8.9
2023-02-21T07:33:00.545Z,8.9
2023-02-21T07:34:00.574Z,8.9
2023-02-21T07:35:00.550Z,8.4
2023-02-21T07:36:00.555Z,8.4
2023-02-21T07:37:00.569Z,8.4
2023-02-21T07:38:00.560Z,8.4
2023-02-21T07:39:00.560Z,8.4
2023-02-21T07:40:00.659Z,8.0
2023-02-21T07:41:02.453Z,8.0
2023-02-21T07:42:00.951Z,8.0
2023-02-21T07:43:00.545Z,8.0
2023-02-21T07:44:00.594Z,8.0
2023-02-21T07:45:00.707Z,8.1
2023-02-21T07:46:01.002Z,8.1
2023-02-21T07:47:00.889Z,8.1
2023-02-21T07:48:00.543Z,8.1
2023-02-21T07:49:00.779Z,8.1
2023-02-21T07:50:00.723Z,8.2
2023-02-21T07:51:00.528Z,8.2
2023-02-21T07:52:00.559Z,8.2
2023-02-21T07:53:00.566Z,8.2
2023-02-21T07:54:00.550Z,8.2
2023-02-21T07:55:00.653Z,7.9
2023-02-21T07:56:02.102Z,7.9
2023-02-21T07:57:00.535Z,7.9
2023-02-21T07:58:00.596Z,7.9
2023-02-21T07:59:00.551Z,7.9
2023-02-21T08:00:00.553Z,8.1
2023-02-21T08:01:00.559Z,8.1
2023-02-21T08:02:00.871Z,8.1
2023-02-21T08:03:00.925Z,8.1
2023-02-21T08:04:00.523Z,8.1
2023-02-21T08:05:00.648Z,7.7
2023-02-21T08:06:00.606Z,7.7
2023-02-21T08:07:02.631Z,7.7
2023-02-21T08:08:00.544Z,7.7
2023-02-21T08:09:00.916Z,7.7
2023-02-21T08:10:00.626Z,7.7
2023-02-21T08:11:00.662Z,7.7
2023-02-21T08:12:00.763Z,7.7
2023-02-21T08:13:00.942Z,7.7
2023-02-21T08:14:00.532Z,7.7
2023-02-21T08:15:00.625Z,6.8
2023-02-21T08:16:00.668Z,6.8
2023-02-21T08:17:00.595Z,6.8
2023-02-21T08:18:00.529Z,6.8
2023-02-21T08:19:00.530Z,6.8
2023-02-21T08:20:00.782Z,6.9
2023-02-21T08:21:00.586Z,6.9
2023-02-21T08:22:00.785Z,6.9
2023-02-21T08:23:00.558Z,6.9
2023-02-21T08:24:00.587Z,6.9
2023-02-21T08:25:00.559Z,6.5
2023-02-21T08:26:02.752Z,6.5
2023-02-21T08:27:00.543Z,6.5
2023-02-21T08:28:00.520Z,6.5
2023-02-21T08:29:00.525Z,6.5
2023-02-21T08:30:00.580Z,6.6
2023-02-21T08:31:00.542Z,6.6
2023-02-21T08:32:01.102Z,6.6
2023-02-21T08:33:00.725Z,6.6
2023-02-21T08:34:00.750Z,6.6
2023-02-21T08:35:01.278Z,8.5
2023-02-21T08:36:00.544Z,8.5
2023-02-21T08:37:00.533Z,8.5
2023-02-21T08:38:00.546Z,8.5
2023-02-21T08:39:00.751Z,8.5
2023-02-21T08:40:00.918Z,5.9
2023-02-21T08:41:00.562Z,5.9
2023-02-21T08:42:00.632Z,5.9
2023-02-21T08:43:00.596Z,5.9
2023-02-21T08:44:00.525Z,5.9
2023-02-21T08:45:00.691Z,6.4
2023-02-21T08:46:00.539Z,6.4
2023-02-21T08:47:00.594Z,6.4
2023-02-21T08:48:00.583Z,6.4
2023-02-21T08:49:01.500Z,6.4
2023-02-21T08:50:00.897Z,5.5
2023-02-21T08:51:02.477Z,5.5
2023-02-21T08:52:00.577Z,5.5
2023-02-21T08:53:00.602Z,5.5
2023-02-21T08:54:01.720Z,5.5
2023-02-21T08:55:00.552Z,5.0
2023-02-21T08:56:00.528Z,5.0
2023-02-21T08:57:00.526Z,5.0
2023-02-21T08:58:00.548Z,5.0
2023-02-21T08:59:00.644Z,5.0
2023-02-21T09:00:00.774Z,5.5
2023-02-21T09:01:00.615Z,5.5
2023-02-21T09:02:00.658Z,5.5
2023-02-21T09:03:00.581Z,5.5
2023-02-21T09:04:01.989Z,5.5
2023-02-21T09:05:00.557Z,5.2
2023-02-21T09:06:00.539Z,5.2
2023-02-21T09:07:00.526Z,5.2
2023-02-21T09:08:00.838Z,5.2
2023-02-21T09:09:00.526Z,5.2
2023-02-21T09:10:01.452Z,5.3
2023-02-21T09:11:00.770Z,5.3
2023-02-21T09:12:00.550Z,5.3
2023-02-21T09:13:01.150Z,5.3
2023-02-21T09:14:00.522Z,5.3
2023-02-21T09:15:00.568Z,4.7
2023-02-21T09:16:02.628Z,4.7
2023-02-21T09:17:01.556Z,4.7
2023-02-21T09:18:00.556Z,4.7
2023-02-21T09:19:00.557Z,4.7
2023-02-21T09:20:02.896Z,5.0
2023-02-21T09:21:00.581Z,5.0
2023-02-21T09:22:01.823Z,5.0
2023-02-21T09:23:00.548Z,5.0
2023-02-21T09:24:00.788Z,5.0
2023-02-21T09:25:00.710Z,4.6
2023-02-21T09:26:00.623Z,4.6
2023-02-21T09:27:00.532Z,4.6
2023-02-21T09:28:00.566Z,4.6
2023-02-21T09:29:00.558Z,4.6
2023-02-21T09:30:03.238Z,4.7
2023-02-21T09:31:00.533Z,4.7
2023-02-21T09:32:02.903Z,4.7
2023-02-21T09:33:00.540Z,4.7
2023-02-21T09:34:00.519Z,4.7
2023-02-21T09:35:00.549Z,4.5
2023-02-21T09:36:00.551Z,4.5
2023-02-21T09:37:04.517Z,4.5
2023-02-21T09:38:01.679Z,4.5
2023-02-21T09:39:00.549Z,4.5
2023-02-21T09:40:00.596Z,4.2
2023-02-21T09:41:04.666Z,4.2
2023-02-21T09:42:00.606Z,4.2
2023-02-21T09:43:02.444Z,4.2
2023-02-21T09:44:03.226Z,4.2
2023-02-21T09:45:02.601Z,3.8
2023-02-21T09:46:06.134Z,3.8
2023-02-21T09:47:04.218Z,3.8
2023-02-21T09:48:06.798Z,3.8
2023-02-21T09:49:03.424Z,3.8
2023-02-21T09:50:05.269Z,3.4
2023-02-21T09:51:04.238Z,3.4
2023-02-21T09:52:01.054Z,3.4
2023-02-21T09:53:00.661Z,3.4
2023-02-21T09:54:02.374Z,3.4
2023-02-21T09:55:07.891Z,4.2
2023-02-21T09:56:07.305Z,4.2
2023-02-21T09:57:02.941Z,4.2
2023-02-21T09:58:01.353Z,4.2
2023-02-21T09:59:00.557Z,4.2
2023-02-21T10:00:00.857Z,3.9
2023-02-21T10:01:10.841Z,3.9
2023-02-21T10:02:10.501Z,3.9
2023-02-21T10:03:10.454Z,3.9
2023-02-21T10:04:10.477Z,3.7
2023-02-21T10:05:18.002Z,3.7
2023-02-21T10:06:11.498Z,3.7
2023-02-21T10:07:10.073Z,3.7
2023-02-21T10:08:08.504Z,3.7
2023-02-21T10:09:13.736Z,3.3
2023-02-21T10:10:17.297Z,3.3
2023-02-21T10:11:15.124Z,3.3
2023-02-21T10:12:09.119Z,3.3
2023-02-21T10:13:20.462Z,3.3
2023-02-21T10:14:11.511Z,3.2
2023-02-21T10:15:14.558Z,3.2
2023-02-21T10:16:07.576Z,3.2
2023-02-21T10:17:17.970Z,3.2
2023-02-21T10:18:08.032Z,3.2
2023-02-21T10:19:17.972Z,3.1
2023-02-21T10:20:10.542Z,3.1
2023-02-21T10:21:02.592Z,3.1
2023-02-21T10:22:10.721Z,3.1
2023-02-21T10:23:02.661Z,3.1
2023-02-21T10:24:08.459Z,3.1
2023-02-21T10:25:15.450Z,3.1
2023-02-21T10:26:04.821Z,3.1
2023-02-21T10:27:05.678Z,3.1
2023-02-21T10:28:00.516Z,3.1
2023-02-21T10:29:01.560Z,3.5
2023-02-21T10:30:05.108Z,3.5
2023-02-21T10:31:07.957Z,3.5
2023-02-21T10:32:01.890Z,3.5
2023-02-21T10:33:01.237Z,3.5
2023-02-21T10:34:04.357Z,3.7
2023-02-21T10:35:00.613Z,3.7
2023-02-21T10:36:00.578Z,3.7
2023-02-21T10:37:15.525Z,3.7
2023-02-21T10:38:02.621Z,3.7
2023-02-21T10:39:12.301Z,3.5
2023-02-21T10:40:07.560Z,3.5
2023-02-21T10:41:03.296Z,3.5
2023-02-21T10:42:00.578Z,3.5
2023-02-21T10:43:06.357Z,3.5
2023-02-21T10:44:09.378Z,4.1
2023-02-21T10:45:01.964Z,4.1
2023-02-21T10:46:07.818Z,4.1
2023-02-21T10:47:01.907Z,4.1
2023-02-21T10:48:06.490Z,4.1
2023-02-21T10:49:20.450Z,3.7
2023-02-21T10:50:05.151Z,3.7
2023-02-21T10:51:13.585Z,3.7
2023-02-21T10:52:03.384Z,3.7
2023-02-21T10:53:00.647Z,3.7
2023-02-21T10:54:20.483Z,3.4
2023-02-21T10:55:22.975Z,3.4
2023-02-21T10:56:14.073Z,3.4
2023-02-21T10:57:02.860Z,3.4
2023-02-21T10:58:10.518Z,3.4
2023-02-21T10:59:03.577Z,3.5
2023-02-21T11:00:01.145Z,3.5
2023-02-21T11:01:11.490Z,3.5
2023-02-21T11:02:03.366Z,3.5
2023-02-21T11:03:06.512Z,3.5
2023-02-21T11:04:04.440Z,3.9
2023-02-21T11:05:14.676Z,3.9
2023-02-21T11:06:00.528Z,3.9
2023-02-21T11:07:04.912Z,3.9
2023-02-21T11:08:03.867Z,3.9
2023-02-21T11:09:11.473Z,3.6
2023-02-21T11:10:00.551Z,3.6
2023-02-21T11:11:00.534Z,3.6
2023-02-21T11:12:02.991Z,3.6
2023-02-21T11:13:12.208Z,3.6
2023-02-21T11:14:11.496Z,4.9
2023-02-21T11:15:00.523Z,4.9
2023-02-21T11:16:10.608Z,4.9
2023-02-21T11:17:14.193Z,4.9
2023-02-21T11:18:06.094Z,4.9
2023-02-21T11:19:05.847Z,3.7
2023-02-21T11:20:00.580Z,3.7
2023-02-21T11:21:11.423Z,3.7
2023-02-21T11:22:00.673Z,3.7
2023-02-21T11:23:00.563Z,3.7
2023-02-21T11:24:04.135Z,3.5
2023-02-21T11:25:10.476Z,3.5
2023-02-21T11:26:10.269Z,3.5
2023-02-21T11:27:00.593Z,3.5
2023-02-21T11:28:06.329Z,3.5
2023-02-21T11:29:12.694Z,3.2
2023-02-21T11:30:08.821Z,3.2
2023-02-21T11:31:00.548Z,3.2
2023-02-21T11:32:10.560Z,3.2
2023-02-21T11:33:01.512Z,3.2
2023-02-21T11:34:04.312Z,3.9
2023-02-21T11:35:04.717Z,3.9
2023-02-21T11:36:13.084Z,3.9
2023-02-21T11:37:03.947Z,3.9
2023-02-21T11:38:04.320Z,3.9
2023-02-21T11:39:04.030Z,3.4
2023-02-21T11:40:00.623Z,3.4
2023-02-21T11:41:02.505Z,3.4
2023-02-21T11:42:03.095Z,3.4
2023-02-21T11:43:20.456Z,3.4
2023-02-21T11:44:00.677Z,3.5
2023-02-21T11:45:13.287Z,3.5
2023-02-21T11:46:09.873Z,3.5
2023-02-21T11:47:03.773Z,3.5
2023-02-21T11:48:05.950Z,3.5
2023-02-21T11:49:10.321Z,3.8
2023-02-21T11:50:07.357Z,3.8
2023-02-21T11:51:04.934Z,3.8
2023-02-21T11:52:07.102Z,3.8
2023-02-21T11:53:10.162Z,3.8
2023-02-21T11:54:02.265Z,4.6
2023-02-21T11:55:00.781Z,4.6
2023-02-21T11:56:03.927Z,4.6
2023-02-21T11:57:11.506Z,4.6
2023-02-21T11:58:20.427Z,4.6
2023-02-21T11:59:10.466Z,3.8
2023-02-21T12:00:20.450Z,3.8
2023-02-21T12:01:07.305Z,3.8
2023-02-21T12:02:10.536Z,3.8
2023-02-21T12:03:02.532Z,3.8
2023-02-21T12:04:12.179Z,3.4
2023-02-21T12:05:08.610Z,3.4
2023-02-21T12:06:00.587Z,3.4
2023-02-21T12:07:20.426Z,3.4
2023-02-21T12:08:11.510Z,3.4
2023-02-21T12:09:20.426Z,3.9
2023-02-21T12:10:12.484Z,3.9
2023-02-21T12:11:13.467Z,3.9
2023-02-21T12:12:12.529Z,3.9
2023-02-21T12:13:13.479Z,3.9
2023-02-21T12:14:08.604Z,3.5
2023-02-21T12:15:10.459Z,3.5
2023-02-21T12:16:07.119Z,3.5
2023-02-21T12:17:20.460Z,3.5
2023-02-21T12:18:20.068Z,3.5
2023-02-21T12:19:20.427Z,3.4
2023-02-21T12:20:20.458Z,3.4
2023-02-21T12:21:20.420Z,3.4
2023-02-21T12:22:03.213Z,3.4
2023-02-21T12:23:11.527Z,3.4
2023-02-21T12:24:20.436Z,3.5
2023-02-21T12:25:16.222Z,3.5
2023-02-21T12:26:11.481Z,3.5
2023-02-21T12:27:12.462Z,3.5
2023-02-21T12:28:20.445Z,3.5
2023-02-21T12:29:20.447Z,3.6
2023-02-21T12:30:20.491Z,3.6
2023-02-21T12:31:19.991Z,3.6
2023-02-21T12:32:04.835Z,3.6
2023-02-21T12:33:13.745Z,3.6
2023-02-21T12:34:09.036Z,3.6
2023-02-21T12:35:20.473Z,3.6
2023-02-21T12:36:12.181Z,3.6
2023-02-21T12:37:09.148Z,3.6
2023-02-21T12:38:20.431Z,3.6
2023-02-21T12:39:10.546Z,3.2
2023-02-21T12:40:13.740Z,3.2
2023-02-21T12:41:20.445Z,3.2
2023-02-21T12:42:13.424Z,3.2
2023-02-21T12:43:19.245Z,3.2
2023-02-21T12:44:11.558Z,2.9
2023-02-21T12:45:18.072Z,2.9
2023-02-21T12:46:18.294Z,2.9
2023-02-21T12:47:05.325Z,2.9
2023-02-21T12:48:01.520Z,2.9
2023-02-21T12:49:07.929Z,3.6
2023-02-21T12:50:14.616Z,3.6
2023-02-21T12:51:06.665Z,3.6
2023-02-21T12:52:17.755Z,3.6
2023-02-21T12:53:14.332Z,3.6
2023-02-21T12:54:04.808Z,3.5
2023-02-21T12:55:13.822Z,3.5
2023-02-21T12:56:08.001Z,3.5
2023-02-21T12:57:05.655Z,3.5
2023-02-21T12:58:11.510Z,3.5
2023-02-21T12:59:14.236Z,2.9
2023-02-21T13:00:13.461Z,2.9
2023-02-21T13:01:14.560Z,2.9
2023-02-21T13:02:10.764Z,2.9
2023-02-21T13:03:10.504Z,2.9
2023-02-21T13:04:15.237Z,3.3
2023-02-21T13:05:07.576Z,3.3
2023-02-21T13:06:14.599Z,3.3
2023-02-21T13:07:10.103Z,3.3
2023-02-21T13:08:04.590Z,3.3
2023-02-21T13:09:14.122Z,2.9
2023-02-21T13:10:14.264Z,2.9
2023-02-21T13:11:12.529Z,2.9
2023-02-21T13:12:09.967Z,2.9
2023-02-21T13:13:10.738Z,2.9
2023-02-21T13:14:00.998Z,2.9
2023-02-21T13:15:13.220Z,2.9
2023-02-21T13:16:03.279Z,2.9
2023-02-21T13:17:00.638Z,2.9
2023-02-21T13:18:13.745Z,2.9
2023-02-21T13:19:03.621Z,3.2
2023-02-21T13:20:06.681Z,3.2
2023-02-21T13:21:17.457Z,3.2
2023-02-21T13:22:16.554Z,3.2
2023-02-21T13:23:00.950Z,3.2
2023-02-21T13:24:20.464Z,3.1
2023-02-21T13:25:11.501Z,3.1
2023-02-21T13:26:20.426Z,3.1
2023-02-21T13:27:20.424Z,3.1
2023-02-21T13:28:08.705Z,3.1
2023-02-21T13:29:01.051Z,3.0
2023-02-21T13:30:11.422Z,3.0
2023-02-21T13:31:03.415Z,3.0
2023-02-21T13:32:06.995Z,3.0
2023-02-21T13:33:00.636Z,3.0
2023-02-21T13:34:01.996Z,3.4
2023-02-21T13:35:04.273Z,3.4
2023-02-21T13:36:00.956Z,3.4
2023-02-21T13:37:04.496Z,3.4
2023-02-21T13:38:04.029Z,3.4
2023-02-21T13:39:14.992Z,2.7
2023-02-21T13:40:15.350Z,2.7
2023-02-21T13:41:10.289Z,2.7
2023-02-21T13:42:05.487Z,2.7
2023-02-21T13:43:05.554Z,2.7
2023-02-21T13:44:09.964Z,3.0
2023-02-21T13:45:14.038Z,3.0
2023-02-21T13:46:20.525Z,3.0